createdAt,value
2022-11-28T00:00:57.160Z,3.55
2022-11-28T00:03:30.148Z,3.56
2022-11-28T00:06:08.567Z,3.58
2022-11-28T00:08:41.947Z,3.59
2022-11-28T00:11:17.714Z,3.58
2022-11-28T00:13:50.881Z,3.58
2022-11-28T00:16:24.643Z,3.57
2022-11-28T00:18:59.595Z,3.55
2022-11-28T00:21:33.073Z,3.50
2022-11-28T00:24:08.331Z,3.47
2022-11-28T00:26:43.236Z,3.49
2022-11-28T00:29:15.954Z,3.50
2022-11-28T00:31:49.493Z,3.50
2022-11-28T00:34:22.319Z,3.51
2022-11-28T00:36:55.555Z,3.52
2022-11-28T00:39:28.291Z,3.52
2022-11-28T00:42:00.926Z,3.51
2022-11-28T00:44:33.874Z,3.50
2022-11-28T00:47:06.692Z,3.49
2022-11-28T00:49:39.523Z,3.49
2022-11-28T00:52:12.378Z,3.47
2022-11-28T00:54:45.127Z,3.43
2022-11-28T00:57:17.730Z,3.44
2022-11-28T00:59:50.597Z,3.46
2022-11-28T01:02:23.822Z,3.49
2022-11-28T01:04:56.545Z,3.47
2022-11-28T01:07:29.342Z,3.45
2022-11-28T01:10:02.114Z,3.44
2022-11-28T01:12:35.505Z,3.46
2022-11-28T01:15:12.310Z,3.46
2022-11-28T01:17:45.456Z,3.46
2022-11-28T01:20:18.540Z,3.47
2022-11-28T01:22:51.689Z,3.46
2022-11-28T01:25:24.665Z,3.45
2022-11-28T01:27:57.255Z,3.44
2022-11-28T01:30:31.047Z,3.42
2022-11-28T01:33:03.870Z,3.42
2022-11-28T01:35:36.772Z,3.44
2022-11-28T01:38:09.614Z,3.43
2022-11-28T01:40:47.264Z,3.42
2022-11-28T01:43:20.257Z,3.39
2022-11-28T01:45:53.369Z,3.38
2022-11-28T01:48:35.726Z,3.35
2022-11-28T01:51:11.001Z,3.33
2022-11-28T01:53:46.115Z,3.34
2022-11-28T01:56:23.756Z,3.38
2022-11-28T01:59:01.229Z,3.38
2022-11-28T02:01:34.330Z,3.36
2022-11-28T02:04:07.458Z,3.37
2022-11-28T02:06:40.344Z,3.37
2022-11-28T02:09:15.693Z,3.39
2022-11-28T02:12:14.418Z,3.42
2022-11-28T02:15:09.783Z,3.42
2022-11-28T02:18:08.714Z,3.38
2022-11-28T02:20:48.911Z,3.36
2022-11-28T02:23:28.915Z,3.34
2022-11-28T02:26:43.691Z,3.33
2022-11-28T02:29:32.971Z,3.34
2022-11-28T02:32:28.159Z,3.32
2022-11-28T02:35:26.775Z,3.29
2022-11-28T02:38:10.314Z,3.25
2022-11-28T02:41:06.204Z,3.24
2022-11-28T02:44:04.593Z,3.25
2022-11-28T02:47:02.856Z,3.25
2022-11-28T02:49:46.397Z,3.22
2022-11-28T02:52:25.954Z,3.20
2022-11-28T02:54:59.305Z,3.21
2022-11-28T02:57:40.630Z,3.20
2022-11-28T03:00:30.301Z,3.19
2022-11-28T03:03:20.659Z,3.18
2022-11-28T03:06:20.812Z,3.16
2022-11-28T03:09:20.712Z,3.15
2022-11-28T03:12:03.880Z,3.17
2022-11-28T03:15:05.681Z,3.18
2022-11-28T03:17:56.638Z,3.19
2022-11-28T03:20:48.550Z,3.18
2022-11-28T03:23:43.733Z,3.15
2022-11-28T03:26:38.475Z,3.13
2022-11-28T03:29:30.459Z,3.09
2022-11-28T03:32:09.677Z,3.07
2022-11-28T03:34:47.489Z,3.04
2022-11-28T03:37:27.443Z,3.05
2022-11-28T03:40:03.973Z,3.04
2022-11-28T03:42:42.825Z,3.05
2022-11-28T03:45:25.873Z,3.05
2022-11-28T03:48:08.104Z,3.07
2022-11-28T03:50:57.065Z,3.08
2022-11-28T03:53:49.664Z,3.10
2022-11-28T03:56:51.670Z,3.11
2022-11-28T03:59:32.195Z,3.11
2022-11-28T04:02:29.158Z,3.11
2022-11-28T04:05:12.881Z,3.12
2022-11-28T04:08:15.222Z,3.13
2022-11-28T04:11:22.027Z,3.14
2022-11-28T04:14:11.692Z,3.13
2022-11-28T04:16:54.067Z,3.11
2022-11-28T04:19:37.191Z,3.09
2022-11-28T04:22:18.120Z,3.07
2022-11-28T04:24:58.246Z,3.07
2022-11-28T04:27:37.407Z,3.08
2022-11-28T04:30:11.956Z,3.08
2022-11-28T04:32:51.202Z,3.05
2022-11-28T04:35:35.306Z,3.06
2022-11-28T04:38:10.474Z,3.05
2022-11-28T04:40:53.869Z,3.07
2022-11-28T04:43:31.628Z,3.06
2022-11-28T04:46:11.990Z,3.04
2022-11-28T04:48:44.790Z,3.00
2022-11-28T04:51:30.713Z,2.99
2022-11-28T04:54:20.106Z,2.97
2022-11-28T04:57:00.478Z,2.97
2022-11-28T04:59:34.281Z,2.96
2022-11-28T05:02:07.727Z,2.93
2022-11-28T05:04:41.345Z,2.94
2022-11-28T05:07:14.740Z,2.93
2022-11-28T05:09:47.562Z,2.93
2022-11-28T05:12:20.757Z,2.94
2022-11-28T05:14:53.917Z,2.95
2022-11-28T05:17:26.625Z,2.96
2022-11-28T05:19:59.436Z,2.96
2022-11-28T05:22:32.207Z,2.96
2022-11-28T05:25:05.139Z,2.94
2022-11-28T05:27:38.518Z,2.92
2022-11-28T05:30:13.261Z,2.93
2022-11-28T05:32:46.097Z,2.97
2022-11-28T05:35:18.943Z,2.98
2022-11-28T05:37:52.377Z,3.00
2022-11-28T05:40:25.456Z,3.01
2022-11-28T05:42:58.023Z,3.02
2022-11-28T05:45:30.741Z,3.03
2022-11-28T05:48:03.296Z,3.07
2022-11-28T05:50:39.900Z,3.12
2022-11-28T05:53:11.072Z,3.12
2022-11-28T05:55:43.915Z,3.15
2022-11-28T05:58:16.642Z,3.18
2022-11-28T06:00:49.700Z,3.18
2022-11-28T06:03:22.300Z,3.21
2022-11-28T06:05:55.388Z,3.22
2022-11-28T06:08:28.179Z,3.24
2022-11-28T06:11:01.410Z,3.27
2022-11-28T06:13:34.222Z,3.28
2022-11-28T06:16:16.732Z,3.28
2022-11-28T06:18:51.332Z,3.26
2022-11-28T06:21:24.857Z,3.25
2022-11-28T06:23:59.551Z,3.25
2022-11-28T06:26:32.494Z,3.28
2022-11-28T06:29:05.910Z,3.28
2022-11-28T06:31:38.733Z,3.26
2022-11-28T06:34:14.063Z,3.22
2022-11-28T06:36:47.066Z,3.23
2022-11-28T06:39:20.048Z,3.24
2022-11-28T06:41:53.128Z,3.25
2022-11-28T06:44:26.008Z,3.26
2022-11-28T06:46:58.967Z,3.24
2022-11-28T06:49:31.869Z,3.20
2022-11-28T06:52:04.942Z,3.18
2022-11-28T06:54:38.026Z,3.16
2022-11-28T06:57:11.041Z,3.14
2022-11-28T06:59:44.348Z,3.19
2022-11-28T07:02:17.351Z,3.25
2022-11-28T07:04:50.085Z,3.25
2022-11-28T07:07:22.908Z,3.26
2022-11-28T07:09:55.525Z,3.27
2022-11-28T07:12:28.502Z,3.27
2022-11-28T07:15:01.223Z,3.29
2022-11-28T07:17:35.289Z,3.30
2022-11-28T07:20:09.512Z,3.30
2022-11-28T07:22:43.939Z,3.29
2022-11-28T07:25:17.526Z,3.29
2022-11-28T07:27:50.342Z,3.29
2022-11-28T07:30:23.651Z,3.28
2022-11-28T07:32:56.415Z,3.25
2022-11-28T07:35:29.322Z,3.24
2022-11-28T07:38:02.541Z,3.25
2022-11-28T07:40:35.418Z,3.24
2022-11-28T07:43:08.346Z,3.21
2022-11-28T07:45:59.943Z,3.21
2022-11-28T07:48:16.499Z,3.23
2022-11-28T07:50:49.228Z,3.25
2022-11-28T07:53:22.511Z,3.26
2022-11-28T07:55:55.360Z,3.26
2022-11-28T07:58:28.352Z,3.26
2022-11-28T08:01:01.435Z,3.27
2022-11-28T08:03:34.414Z,3.32
2022-11-28T08:06:08.834Z,3.35
2022-11-28T08:08:42.099Z,3.33
2022-11-28T08:11:17.361Z,3.31
2022-11-28T08:13:53.794Z,3.26
2022-11-28T08:16:27.598Z,3.21
2022-11-28T08:19:02.856Z,3.19
2022-11-28T08:21:36.034Z,3.17
2022-11-28T08:24:09.425Z,3.16
2022-11-28T08:26:42.530Z,3.13
2022-11-28T08:29:15.387Z,3.11
2022-11-28T08:31:48.741Z,3.07
2022-11-28T08:34:21.676Z,3.07
2022-11-28T08:36:54.435Z,3.08
2022-11-28T08:39:27.585Z,3.09
2022-11-28T08:42:00.446Z,3.08
2022-11-28T08:44:34.292Z,3.10
2022-11-28T08:47:07.034Z,3.09
2022-11-28T08:49:40.168Z,3.12
2022-11-28T08:52:13.179Z,3.13
2022-11-28T08:54:46.510Z,3.14
2022-11-28T08:57:19.169Z,3.14
2022-11-28T08:59:52.293Z,3.18
2022-11-28T09:02:26.220Z,3.21
2022-11-28T09:04:59.680Z,3.24
2022-11-28T09:07:32.553Z,3.25
2022-11-28T09:10:06.128Z,3.30
2022-11-28T09:12:39.054Z,3.34
2022-11-28T09:15:12.199Z,3.36
2022-11-28T09:17:45.760Z,3.32
2022-11-28T09:20:18.603Z,3.29
2022-11-28T09:22:51.276Z,3.21
2022-11-28T09:25:24.129Z,3.14
2022-11-28T09:27:56.981Z,3.10
2022-11-28T09:30:30.175Z,3.10
2022-11-28T09:33:03.071Z,3.12
2022-11-28T09:35:37.577Z,3.14
2022-11-28T09:38:09.378Z,3.08
2022-11-28T09:40:44.891Z,3.06
2022-11-28T09:43:39.191Z,3.03
2022-11-28T09:46:16.762Z,3.04
2022-11-28T09:48:53.459Z,3.05
2022-11-28T09:51:45.959Z,3.03
2022-11-28T09:54:41.428Z,3.03
2022-11-28T09:57:18.959Z,3.00
2022-11-28T09:59:51.925Z,2.96
2022-11-28T10:02:41.318Z,2.92
2022-11-28T10:05:53.290Z,2.90
2022-11-28T10:08:45.563Z,2.93
2022-11-28T10:11:40.784Z,2.97
2022-11-28T10:15:01.418Z,2.96
2022-11-28T10:17:59.872Z,2.94
2022-11-28T10:20:45.943Z,2.93
2022-11-28T10:23:43.894Z,2.93
2022-11-28T10:26:33.762Z,2.95
2022-11-28T10:29:23.300Z,2.99
2022-11-28T10:32:06.216Z,3.05
2022-11-28T10:35:06.919Z,2.98
2022-11-28T10:37:41.437Z,2.98
2022-11-28T10:40:40.780Z,2.92
2022-11-28T10:43:38.211Z,2.90
2022-11-28T10:46:45.883Z,2.91
2022-11-28T10:49:53.607Z,2.90
2022-11-28T10:52:46.122Z,2.87
2022-11-28T10:55:46.906Z,2.80
2022-11-28T10:58:36.467Z,2.77
2022-11-28T11:01:09.309Z,2.75
2022-11-28T11:03:42.724Z,2.76
2022-11-28T11:06:15.445Z,2.78
2022-11-28T11:08:49.525Z,2.80
2022-11-28T11:11:38.198Z,2.82
2022-11-28T11:14:12.810Z,2.86
2022-11-28T11:16:55.737Z,2.87
2022-11-28T11:19:34.938Z,2.85
2022-11-28T11:22:32.321Z,2.86
2022-11-28T11:25:20.584Z,2.86
2022-11-28T11:28:01.249Z,2.87
2022-11-28T11:30:40.248Z,2.82
2022-11-28T11:33:18.447Z,2.81
2022-11-28T11:35:51.997Z,2.84
2022-11-28T11:38:36.185Z,2.86
2022-11-28T11:41:30.951Z,2.84
2022-11-28T11:44:35.459Z,2.82
2022-11-28T11:47:11.062Z,2.81
2022-11-28T11:49:49.960Z,2.83
2022-11-28T11:52:28.300Z,2.80
2022-11-28T11:55:15.081Z,2.78
2022-11-28T11:57:53.565Z,2.77
2022-11-28T12:00:39.847Z,2.77
2022-11-28T12:03:44.674Z,2.78
2022-11-28T12:06:25.119Z,2.79
2022-11-28T12:09:35.511Z,2.76
2022-11-28T12:12:25.840Z,2.74
2022-11-28T12:14:58.798Z,2.73
2022-11-28T12:20:45.950Z,2.70
2022-11-28T12:23:44.219Z,2.71
2022-11-28T12:26:36.658Z,2.74
2022-11-28T12:29:30.782Z,2.74
2022-11-28T12:32:32.212Z,2.77
2022-11-28T12:35:43.739Z,2.72
2022-11-28T12:38:39.651Z,2.66
2022-11-28T12:42:05.672Z,2.60
2022-11-28T12:45:16.264Z,2.56
2022-11-28T12:48:05.761Z,2.52
2022-11-28T12:50:41.850Z,2.50
2022-11-28T12:53:34.488Z,2.50
2022-11-28T12:56:26.713Z,2.48
2022-11-28T12:59:26.865Z,2.46
2022-11-28T13:02:50.521Z,2.44
2022-11-28T13:05:40.798Z,2.39
2022-11-28T13:08:21.764Z,2.37
2022-11-28T13:11:18.344Z,2.34
2022-11-28T13:13:55.348Z,2.32
2022-11-28T13:16:47.027Z,2.31
2022-11-28T13:20:02.402Z,2.31
2022-11-28T13:22:54.494Z,2.33
2022-11-28T13:25:54.744Z,2.34
2022-11-28T13:29:08.653Z,2.30
2022-11-28T13:32:02.310Z,2.28
2022-11-28T13:34:35.983Z,2.26
2022-11-28T13:40:31.387Z,2.26
2022-11-28T13:43:24.999Z,2.24
2022-11-28T13:45:58.936Z,2.19
2022-11-28T13:51:31.006Z,2.14
2022-11-28T13:54:22.685Z,2.13
2022-11-28T13:57:27.814Z,2.13
2022-11-28T14:00:25.650Z,2.14
2022-11-28T14:03:00.463Z,2.19
2022-11-28T14:05:41.648Z,2.16
2022-11-28T14:08:31.437Z,2.12
2022-11-28T14:11:27.719Z,2.07
2022-11-28T14:14:39.815Z,2.09
2022-11-28T14:17:46.895Z,2.07
2022-11-28T14:20:39.309Z,2.04
2022-11-28T14:23:39.562Z,2.01
2022-11-28T14:26:38.302Z,1.96
2022-11-28T14:29:26.230Z,1.94
2022-11-28T14:32:29.699Z,1.92
2022-11-28T14:34:52.521Z,1.90
2022-11-28T14:37:37.702Z,1.90
2022-11-28T14:40:15.349Z,1.90
2022-11-28T14:43:03.805Z,1.89
2022-11-28T14:45:44.778Z,1.86
2022-11-28T14:48:30.828Z,1.85
2022-11-28T14:51:03.793Z,1.86
2022-11-28T14:53:40.927Z,1.87
2022-11-28T14:56:23.482Z,1.91
2022-11-28T14:58:59.918Z,1.90
2022-11-28T15:01:59.309Z,1.88
2022-11-28T15:04:44.392Z,1.88
2022-11-28T15:08:07.016Z,1.87
2022-11-28T15:10:59.884Z,1.84
2022-11-28T15:13:46.357Z,1.77
2022-11-28T15:16:20.540Z,1.73
2022-11-28T15:18:58.382Z,1.73
2022-11-28T15:21:34.661Z,1.76
2022-11-28T15:24:22.260Z,1.79
2022-11-28T15:27:11.676Z,1.82
2022-11-28T15:29:44.722Z,1.82
2022-11-28T15:32:18.877Z,1.84
2022-11-28T15:35:01.394Z,1.81
2022-11-28T15:37:36.413Z,1.81
2022-11-28T15:40:13.404Z,1.78
2022-11-28T15:42:51.580Z,1.76
2022-11-28T15:45:35.676Z,1.74
2022-11-28T15:48:10.201Z,1.74
2022-11-28T15:50:47.677Z,1.76
2022-11-28T15:53:23.118Z,1.79
2022-11-28T15:56:16.432Z,1.78
2022-11-28T15:58:51.613Z,1.79
2022-11-28T16:01:29.063Z,1.80
2022-11-28T16:04:14.109Z,1.81
2022-11-28T16:06:53.072Z,1.79
2022-11-28T16:09:38.833Z,1.78
2022-11-28T16:12:14.325Z,1.76
2022-11-28T16:14:48.536Z,1.76
2022-11-28T16:17:25.227Z,1.75
2022-11-28T16:19:59.466Z,1.73
2022-11-28T16:22:37.612Z,1.75
2022-11-28T16:25:23.940Z,1.76
2022-11-28T16:27:57.806Z,1.77
2022-11-28T16:30:37.877Z,1.79
2022-11-28T16:33:41.363Z,1.77
2022-11-28T16:36:20.784Z,1.74
2022-11-28T16:38:57.968Z,1.71
2022-11-28T16:41:32.382Z,1.71
2022-11-28T16:44:14.968Z,1.72
2022-11-28T16:46:59.800Z,1.72
2022-11-28T16:49:44.321Z,1.72
2022-11-28T16:52:28.327Z,1.68
2022-11-28T16:55:01.255Z,1.67
2022-11-28T16:57:48.112Z,1.67
2022-11-28T17:00:20.835Z,1.66
2022-11-28T17:02:54.674Z,1.66
2022-11-28T17:05:27.414Z,1.67
2022-11-28T17:08:02.081Z,1.68
2022-11-28T17:10:34.837Z,1.71
2022-11-28T17:13:07.924Z,1.69
2022-11-28T17:15:40.826Z,1.69
2022-11-28T17:18:13.459Z,1.71
2022-11-28T17:20:46.218Z,1.71
2022-11-28T17:23:27.815Z,1.72
2022-11-28T17:26:01.050Z,1.71
2022-11-28T17:28:33.938Z,1.71
2022-11-28T17:31:06.840Z,1.71
2022-11-28T17:33:44.448Z,1.71
2022-11-28T17:36:14.640Z,1.73
2022-11-28T17:38:47.315Z,1.73
2022-11-28T17:41:19.969Z,1.73
2022-11-28T17:43:53.265Z,1.72
2022-11-28T17:46:26.244Z,1.71
2022-11-28T17:48:59.820Z,1.71
2022-11-28T17:51:32.425Z,1.72
2022-11-28T17:54:05.909Z,1.74
2022-11-28T17:56:38.743Z,1.77
2022-11-28T17:59:16.582Z,1.78
2022-11-28T18:01:50.174Z,1.78
2022-11-28T18:04:24.833Z,1.79
2022-11-28T18:06:57.414Z,1.77
2022-11-28T18:09:30.599Z,1.74
2022-11-28T18:12:03.387Z,1.71
2022-11-28T18:14:39.779Z,1.69
2022-11-28T18:17:12.368Z,1.65
2022-11-28T18:19:46.606Z,1.62
2022-11-28T18:22:19.435Z,1.63
2022-11-28T18:24:52.619Z,1.62
2022-11-28T18:27:25.528Z,1.65
2022-11-28T18:29:59.778Z,1.67
2022-11-28T18:32:34.161Z,1.68
2022-11-28T18:35:08.124Z,1.67
2022-11-28T18:37:42.260Z,1.66
2022-11-28T18:40:15.237Z,1.67
2022-11-28T18:42:48.860Z,1.65
2022-11-28T18:45:21.800Z,1.66
2022-11-28T18:47:59.904Z,1.61
2022-11-28T18:50:29.247Z,1.62
2022-11-28T18:53:03.169Z,1.64
2022-11-28T18:55:35.865Z,1.63
2022-11-28T18:58:08.526Z,1.64
2022-11-28T19:00:41.275Z,1.65
2022-11-28T19:03:13.932Z,1.65
2022-11-28T19:05:46.807Z,1.65
2022-11-28T19:08:19.828Z,1.67
2022-11-28T19:10:52.763Z,1.68
2022-11-28T19:13:25.463Z,1.68
2022-11-28T19:15:58.237Z,1.67
2022-11-28T19:18:30.984Z,1.65
2022-11-28T19:21:10.335Z,1.63
2022-11-28T19:23:44.642Z,1.61
2022-11-28T19:26:21.001Z,1.59
2022-11-28T19:28:54.464Z,1.58
2022-11-28T19:31:31.044Z,1.57
2022-11-28T19:34:07.309Z,1.59
2022-11-28T19:36:43.187Z,1.57
2022-11-28T19:39:22.359Z,1.56
2022-11-28T19:41:57.240Z,1.55
2022-11-28T19:44:30.824Z,1.54
2022-11-28T19:47:03.697Z,1.54
2022-11-28T19:49:38.516Z,1.51
2022-11-28T19:52:11.400Z,1.50
2022-11-28T19:54:45.741Z,1.49
2022-11-28T19:57:20.523Z,1.43
2022-11-28T19:59:53.337Z,1.41
2022-11-28T20:02:26.549Z,1.38
2022-11-28T20:04:59.579Z,1.40
2022-11-28T20:07:33.054Z,1.42
2022-11-28T20:10:07.131Z,1.42
2022-11-28T20:12:40.470Z,1.40
2022-11-28T20:15:18.024Z,1.42
2022-11-28T20:17:48.184Z,1.41
2022-11-28T20:20:21.592Z,1.37
2022-11-28T20:22:55.973Z,1.36
2022-11-28T20:25:29.251Z,1.34
2022-11-28T20:28:02.271Z,1.32
2022-11-28T20:30:37.466Z,1.30
2022-11-28T20:33:10.175Z,1.27
2022-11-28T20:35:42.938Z,1.25
2022-11-28T20:38:16.529Z,1.23
2022-11-28T20:40:49.170Z,1.23
2022-11-28T20:43:21.781Z,1.24
2022-11-28T20:45:55.889Z,1.26
2022-11-28T20:48:29.260Z,1.25
2022-11-28T20:51:02.078Z,1.24
2022-11-28T20:53:36.910Z,1.23
2022-11-28T20:56:16.585Z,1.24
2022-11-28T20:58:49.484Z,1.23
2022-11-28T21:01:25.687Z,1.21
2022-11-28T21:03:58.780Z,1.21
2022-11-28T21:06:32.077Z,1.22
2022-11-28T21:09:08.288Z,1.22
2022-11-28T21:11:56.748Z,1.19
2022-11-28T21:14:16.462Z,1.20
2022-11-28T21:16:49.265Z,1.18
2022-11-28T21:19:22.332Z,1.17
2022-11-28T21:21:55.098Z,1.16
2022-11-28T21:24:28.667Z,1.16
2022-11-28T21:27:01.501Z,1.16
2022-11-28T21:29:34.549Z,1.16
2022-11-28T21:32:08.062Z,1.17
2022-11-28T21:34:40.691Z,1.19
2022-11-28T21:37:13.169Z,1.18
2022-11-28T21:39:46.345Z,1.15
2022-11-28T21:42:20.888Z,1.13
2022-11-28T21:44:53.765Z,1.10
2022-11-28T21:47:26.503Z,1.06
2022-11-28T21:49:59.748Z,1.03
2022-11-28T21:52:34.000Z,1.00
2022-11-28T21:55:07.758Z,0.99
2022-11-28T21:57:42.368Z,0.98
2022-11-28T22:00:31.623Z,1.00
2022-11-28T22:02:51.335Z,1.00
2022-11-28T22:05:24.738Z,1.01
2022-11-28T22:07:58.011Z,1.00
2022-11-28T22:10:31.670Z,0.99
2022-11-28T22:13:04.494Z,0.98
2022-11-28T22:15:43.494Z,0.96
2022-11-28T22:18:16.229Z,0.95
2022-11-28T22:20:52.834Z,0.93
2022-11-28T22:23:23.846Z,0.94
2022-11-28T22:25:56.962Z,0.95
2022-11-28T22:28:30.037Z,0.99
2022-11-28T22:31:19.581Z,0.98
2022-11-28T22:33:52.585Z,0.97
2022-11-28T22:36:26.499Z,1.00
2022-11-28T22:39:00.191Z,0.99
2022-11-28T22:41:34.036Z,1.00
2022-11-28T22:44:07.548Z,1.01
2022-11-28T22:46:41.098Z,0.97
2022-11-28T22:49:15.210Z,0.97
2022-11-28T22:51:48.074Z,0.96
2022-11-28T22:54:21.264Z,0.95
2022-11-28T22:56:55.972Z,0.95
2022-11-28T22:59:30.453Z,0.96
2022-11-28T23:02:04.563Z,0.97
2022-11-28T23:04:38.128Z,0.98
2022-11-28T23:07:11.717Z,0.99
2022-11-28T23:09:44.611Z,0.97
2022-11-28T23:12:18.270Z,0.95
2022-11-28T23:14:51.960Z,0.94
2022-11-28T23:17:24.670Z,0.91
2022-11-28T23:19:57.487Z,0.92
2022-11-28T23:22:30.900Z,0.93
2022-11-28T23:25:03.819Z,0.93
2022-11-28T23:27:36.817Z,0.94
2022-11-28T23:30:10.720Z,0.93
2022-11-28T23:32:43.887Z,0.92
2022-11-28T23:35:17.052Z,0.91
2022-11-28T23:37:50.178Z,0.90
2022-11-28T23:40:22.796Z,0.93
2022-11-28T23:42:55.475Z,0.93
2022-11-28T23:45:28.129Z,0.92
2022-11-28T23:48:00.932Z,0.89
2022-11-28T23:50:35.453Z,0.88
2022-11-28T23:53:08.116Z,0.88
2022-11-28T23:55:40.966Z,0.86
2022-11-28T23:58:13.716Z,0.85
